Tue, 2018 September 25. @ 23:22 (Europe/Berlin) | Change timezone

Most popular leagues

Teams Home % Draw % Away % U 2.5 % O 2.5 % Avg Goals
Italy Italy Serie A 2018/2019
20 48.98 22.45 28.57 53.06 46.94 2.67
UEFA UEFA Champions League 2018/2019
32 37.5 25 37.5 31.25 68.75 2.81
Germany Germany Bundesliga 2018/2019
18 45.95 29.73 24.32 45.95 54.05 2.89
Spain Spain La Liga 2018/2019
20 32.65 32.65 34.69 55.1 44.9 2.61
England England Premiership 2018/2019
20 41.67 21.67 36.67 38.33 61.67 2.9

Fixtures - 2018.09.25

Group by: leagues | time
Time Home Score Away 1 X 2 H2H
  Argentina Primera Division 2018/2019
01:00 Racing Club 1 : 0 Union Santa Fe 1.76 3.36 5.10
  Austria ÖFB Stiegl Cup 2018/2019
16:00 Leobendorf SV 1 : 2 SC Rheindorf Altach 11.30 7.18 1.20
18:00 Bruck/Leitha 1 : 3 Austria Lustenau 4.66 4.53 1.56
18:30 St. Andrä 4 : 0 Austria Klagenfurt 1.30 5.38 8.03
19:00 Vöcklamarkt Union - : - Ried SV 5.28 5.15 1.42
19:00 Deutschlandsberger Sport Club - : - FC Wiener Neustadt 3.43 3.93 1.92
19:00 Hartberg TSV 3 : 0 Wattens 1.31 5.20 8.20
19:30 Horn - : - Lafnitz 2.43 3.41 2.68
20:45 Grazer AK - : - Steyer Vorw. 1.85 3.92 3.60
  Belgium Beker van Belgie 2018/2019
20:00 Waasland - : - Mandel United 1.04 12.81 26.00
20:00 Eupen - : - Tubize AFC 1.45 4.63 5.56
20:30 Harelbeke - : - Kortrijk 29.00 12.81 1.03
  Brazil Serie A 2018
01:00 Chapecoense AF 1 : 2 Fluminense 2.11 3.04 3.77
01:00 Vasco da Gama 2 : 1 Bahia 2.07 3.15 3.82
  Colombia Primera División 2018
02:45 Envigado FC 1 : 1 América de Cali 3.32 2.95 2.24
  Croatia HR Nogometni Cup 2018/2019
15:30 Vukovar'91 3 : 5 ot Zadarkomerc 4.94 3.86 1.57
15:30 Kurilovec 0 : 2 Slaven Belupo 16.50 7.75 1.11
  Czech Republic Pohár 2018/2019
16:00 Sokolov Baník 1 : 2 Ostrava Baník 4.37 3.66 1.67
16:00 Slavičín 3 : 9 Zlín 16.88 9.78 1.06
16:00 Chrudim AFK 2 : 0 Mladá Boleslav 5.79 4.31 1.44
  Denmark Landspokal 2018/2019
16:30 LSF Smorum 1 : 2 Hobro 7.01 5.42 1.30
19:00 Kolding IF - : - Randers Freja 13.88 5.90 1.26
  Ecuador Primera A 2018
03:00 Técnico Universitario 4 : 5 Universidad Catolica Quito 3.43 3.35 2.05
  Estonia Meistriliiga 2018
18:00 P - : - Flora Tallin - - -
  France Ligue 1 2018/2019
19:00 Nantes - : - Nice 2.37 3.15 3.18
19:00 Monaco - : - Angers 1.62 4.09 5.70
21:00 Toulouse - : - St. Etienne 2.36 3.20 3.17
  Germany 2. Liga 2018/2019
18:30 Köln 2 : 1 Ingolstadt 1.49 4.35 6.04
18:30 Darmstatd 98 1 : 2 Bielefeld 2.24 3.27 3.22
18:30 Bochum 0 : 1 Dresden 2.16 3.40 3.30
18:30 Berlin Union 2 : 0 Holstein Kiel 1.92 3.48 3.93
  Germany 3. Liga 2018/2019
19:00 Rostock - : - Münster 1.94 3.38 3.83
19:00 Braunschweig - : - Kaiserslautern 2.35 3.12 3.03
19:00 W - : - Meppen 1.50 4.11 6.05
19:00 Wehen SV - : - Sonnenhof Grossaspach SG 1.59 3.80 5.48
19:00 Lotte Sportfreunde - : - Jena 2.15 3.33 3.23
  Germany Bundesliga 2018/2019
18:30 Werder Bremen 3 : 1 Hertha Berlin 2.01 3.52 3.65
20:30 Hannover 96 - : - Hoffenheim 3.07 3.68 2.21
20:30 Freiburg - : - Schalke 04 3.22 3.29 2.28
20:30 Bayern München - : - Augsburg FC 1.11 9.63 21.20
  Greece Cup 2018/2019
15:30 Apollon Paralimniou 1 : 1 Trikala 6.50 3.80 1.50
15:30 OF Ierapetra 0 : 2 Kissamikos 5.75 3.90 1.55
15:30 Volos NFC 5 : 1 Apollon Larissas 1.26 5.00 9.25
18:00 Asteras Tripolis 2 : 1 Apollon Smirnis 1.19 5.50 14.33
20:30 Atromitos Athinon FC - : - Yiannina 1.73 3.37 4.50
  Hungary NB II 2018/2019
19:00 Békéscsaba - : - Győri ETO FC 2.20 3.31 2.87
  Ireland Premier League 2018
21:00 Dundalk FC - : - Derry City 1.17 6.79 12.19
  Italy Serie A 2018/2019
21:00 Inter Milan - : - Fiorentina 1.65 3.73 5.70
  Italy Serie B 2018/2019
21:00 Cittadella - : - Benevento 2.71 3.13 2.70
21:00 Brescia - : - Palermo 2.80 3.02 2.69
21:00 Salernitana - : - Ascoli 2.05 3.06 4.06
21:00 Pescara - : - Crotone 2.51 3.03 2.99
21:00 Perugia - : - Carpi 1.90 3.22 4.47
21:00 Livorno - : - Lecce 2.55 2.99 2.96
21:00 Helas Verona - : - Spezia 1.95 3.19 4.28
  Lithuania A Lyga 2018
17:00 Atlantas Klaipeda 1 : 1 Palanga 2.70 3.13 2.47
  Netherlands KNVB Beker 2018/2019
17:00 Amsterdam FC 5 : 0 Telstar 4.11 3.85 1.75
18:30 Waalwijk RKC - : - NAC Breda 3.27 3.39 2.05
19:45 Helmond - : - Sittard Fortuna 4.51 4.14 1.59
19:45 Koninklijke HFC - : - Harkemase Boys 1.60 4.07 4.39
19:45 Scheveningen - : - Cambuur Leeuwarden 6.58 4.54 1.38
19:45 VVSB Sint Bavo - : - Graafschap 6.86 5.15 1.31
19:45 Spakenburg - : - DFS 1.17 6.79 10.88
19:45 DVS '33 Ermelo - : - Roda Kerkade 19.13 10.11 1.06
19:45 Rijnsburgse Boys - : - Top Oss 4.58 4.28 1.55
19:45 Den Bosch - : - Heracles 4.25 4.02 1.65
19:45 Westlandia - : - Venlo VVV 25.25 11.31 1.04
19:45 Noordwijk - : - Sparta Rotterdam 8.60 5.69 1.24
19:45 Volendam - : - Willem Tilburg 6.80 4.29 1.42
19:45 ODIN '59 - : - Lisse 2.25 3.58 2.66
19:45 Omniworld - : - Dordrecht 1.43 4.48 5.93
19:45 Deventer - : - EW Eindhoven 1.54 3.98 5.06
20:00 Kozakken Boys - : - Sneek 1.27 5.56 7.73
20:45 Excelsior - : - NEC Nijmegen 2.01 3.74 3.08
  Norway Adeccoligaen 2018
19:00 Mjondalen IF - : - Aalesund 2.17 3.26 3.19
  Poland Puchar Polski 2018/2019
15:00 Slask Swietochlowice 0 : 3 Arka Gdynia 34.75 12.00 1.03
15:00 Lódz LKS 0 : 1 ot Lech Poznan 9.50 4.31 1.32
15:30 Gryf Wejherowo 1 : 3 Stomil Olsztyn 2.38 3.36 2.63
15:30 Siarka Tarnobrzeg 1 : 4 Plock 5.36 3.94 1.52
16:00 Polonia G 0 : 8 Chrobry G 8.94 5.20 1.26
17:30 Chojniczanka Chojnice 0 : 1 Legia Warszawa 5.50 4.01 1.50
18:30 Pogo 2 : 1 Stal Mielec 3.83 3.38 1.85
19:20 Ruch Chorzów - : - Odra Opole 2.68 3.17 2.45
20:30 Wisla Kraków - : - Lechia Gdaňsk 2.13 3.24 3.18
  Romania Cupa Romaniei 2018/2019
15:00 Voluntari FC 2 : 1 Botosani 2.63 3.13 2.50
15:30 Csikszereda 2 : 1 Energeticianul 3.17 3.50 2.00
17:45 Damila Maciuca 0 : 2 U Craiova 1948 9.88 5.07 1.25
18:00 ASU Poli Timisoara 1 : 2 ot(p) Sepsi Sfantu Gheorghe 3.82 3.31 1.87
20:30 Dacia Unirea Braila - : - Dinamo Bucureşti 14.88 7.11 1.12
  Russia Cup 2018/2019
12:00 Dinamo Barnaul 0 : 2 Gazovik Orenburg 8.50 4.14 1.36
17:00 Neftekhimik Nizhnekamsk 2 : 3 Ural Sverdlovskaya Oblast 5.18 3.39 1.65
  Slovakia Super Liga 2018/2019
18:00 Nitra 2 : 1 Trenčín 3.03 3.37 2.12
  Spain La Liga 2018/2019
20:00 Espaňol Barcelona - : - Eibar 1.90 3.33 4.48
21:00 Real Sociedad - : - Vallecano Madrid 1.58 4.11 5.76
22:00 Atletico Madrid - : - Huesca 1.24 6.11 13.40
  Sweden Allsvenskan 2018
19:00 Örebro SK - : - Sirius 1.93 3.50 3.83
  Sweden Superettan 2018
19:00 Halmstad BK - : - Landskrona 1.62 3.86 4.86
  Switzerland Challenge League 2018/2019
20:00 Servette FC - : - Kriens 1.59 4.02 5.03
20:00 Chiasso - : - Rapperswil-Jona 3.21 3.51 2.07
20:00 Aarau FC - : - Schaffhausen FC 2.56 3.57 2.49
  Switzerland Super League 2018/2019
20:00 Grasshoppers Zürich - : - Thun 2.51 3.38 2.70
  Turkey Türkiye Kupasi 2018/2019
12:00 Erzincanspor 2 : 1 Gaziantepspor BB 4.61 3.75 1.65
12:00 Trabzon Karadenizspor 3 : 2 ot(p) Tuzlaspor 3.12 3.13 2.26
13:00 Erzin Belediyespor 1 : 4 Umraniyespor 7.06 4.10 1.46
13:30 Yeni Altindag BS 3 : 0 Vestel Manisaspor 1.41 4.38 6.88
13:30 Diyarbakespor 1 : 0 Samsunspor 3.39 3.28 2.02
14:00 Pendikspor 2 : 1 Altinordu SK Izmir 2.89 3.13 2.39
14:00 Nazillispor 5 : 0 Tokatspor 2.65 3.16 2.57
14:00 Manisa BBSK 1 : 2 Keciörengücü 2.26 3.17 3.08
14:00 Maltepespor Istanbul 1 : 2 Menemen Belediye 5.55 3.80 1.54
14:00 Kirklarelispor 4 : 1 Usakspor 2.38 3.25 2.80
14:00 Boz 0 : 1 Denizlispor 8.14 4.96 1.30
15:30 Tire 1922 0 : 1 Sivas 4 Eyl 2.76 3.24 2.47
17:30 Erzurumspor 1 : 0 Ankara Demirspor 1.23 6.08 11.06
19:30 Demirspor - : - Orduspor 1.35 4.73 7.19
  Ucraine Cup 2018/2019
17:30 Sumy 0 : 3 Karpaty Lvov 17.75 9.70 1.06
Quick streaks
Most wins in a row10 England / EURO Qualifiers
Most draws in a row5 Sonnenhof Grossaspach SG / 3. Liga
Most losses in a row33 Aharnaikos / B Ethniki
Most under 2.5 pts. in a row10 Sloboda Tuzla / Premier Liga
Most over 2.5 pts. in a row32 Aharnaikos / B Ethniki
No goals scored in a row31 Aharnaikos / B Ethniki
No goals received in a row8 Spain / EURO Qualifiers